createdAt,value
2019-04-01T00:03:57.872Z,22.90
2019-04-01T00:08:59.236Z,22.90
2019-04-01T00:14:00.568Z,22.80
2019-04-01T00:19:03.246Z,22.80
2019-04-01T00:24:04.915Z,22.80
2019-04-01T00:29:06.353Z,22.80
2019-04-01T00:34:07.712Z,22.80
2019-04-01T00:39:09.069Z,22.70
2019-04-01T00:44:12.060Z,22.70
2019-04-01T00:49:13.397Z,22.60
2019-04-01T00:54:14.741Z,22.60
2019-04-01T00:59:16.113Z,22.60
2019-04-01T01:04:17.449Z,22.60
2019-04-01T01:09:18.821Z,22.50
2019-04-01T01:14:20.157Z,22.50
2019-04-01T01:19:21.532Z,22.50
2019-04-01T01:24:22.903Z,22.50
2019-04-01T01:29:24.264Z,22.40
2019-04-01T01:34:25.609Z,22.30
2019-04-01T01:39:27.080Z,22.30
2019-04-01T01:44:28.438Z,22.30
2019-04-01T01:49:29.793Z,22.30
2019-04-01T01:54:31.231Z,22.30
2019-04-01T01:59:32.584Z,22.20
2019-04-01T02:04:34.254Z,22.30
2019-04-01T02:09:35.589Z,22.20
2019-04-01T02:14:36.969Z,22.20
2019-04-01T02:19:38.316Z,22.20
2019-04-01T02:24:39.690Z,22.10
2019-04-01T02:29:41.071Z,22.10
2019-04-01T02:34:42.410Z,22.10
2019-04-01T02:39:43.783Z,22.10
2019-04-01T02:44:45.161Z,22.00
2019-04-01T02:49:46.532Z,22.00
2019-04-01T02:54:47.885Z,21.90
2019-04-01T02:59:49.219Z,21.90
2019-04-01T03:04:50.762Z,21.90
2019-04-01T03:09:52.139Z,21.90
2019-04-01T03:14:53.502Z,21.80
2019-04-01T03:19:54.871Z,21.80
2019-04-01T03:24:56.256Z,21.80
2019-04-01T03:29:57.614Z,21.70
2019-04-01T03:34:58.966Z,21.70
2019-04-01T03:40:00.700Z,21.70
2019-04-01T03:45:04.375Z,21.60
2019-04-01T03:50:06.579Z,21.60
2019-04-01T03:55:08.350Z,21.60
2019-04-01T04:00:10.294Z,21.60
2019-04-01T04:05:11.717Z,21.50
2019-04-01T04:10:13.235Z,21.50
2019-04-01T04:15:14.720Z,21.50
2019-04-01T04:20:16.168Z,21.40
2019-04-01T04:25:17.569Z,21.40
2019-04-01T04:30:20.021Z,21.40
2019-04-01T04:35:21.355Z,21.50
2019-04-01T04:40:22.816Z,21.50
2019-04-01T04:45:24.222Z,21.50
2019-04-01T04:50:25.592Z,21.40
2019-04-01T04:55:26.971Z,21.50
2019-04-01T05:00:28.301Z,21.50
2019-04-01T05:05:29.788Z,21.50
2019-04-01T05:10:31.242Z,21.50
2019-04-01T05:15:32.699Z,21.40
2019-04-01T05:20:34.260Z,21.40
2019-04-01T05:25:36.362Z,21.40
2019-04-01T05:30:39.353Z,21.50
2019-04-01T05:35:40.795Z,21.50
2019-04-01T05:40:42.566Z,21.50
2019-04-01T05:45:44.055Z,21.50
2019-04-01T05:50:45.413Z,21.50
2019-04-01T05:55:47.585Z,21.50
2019-04-01T06:00:51.134Z,21.50
2019-04-01T06:05:52.856Z,21.50
2019-04-01T06:10:54.405Z,21.50
2019-04-01T06:15:55.959Z,21.50
2019-04-01T06:20:57.915Z,21.50
2019-04-01T06:25:59.266Z,21.60
2019-04-01T06:31:00.838Z,21.60
2019-04-01T06:36:02.413Z,21.60
2019-04-01T06:41:03.749Z,21.60
2019-04-01T06:46:05.307Z,21.60
2019-04-01T06:51:06.744Z,21.60
2019-04-01T06:56:08.117Z,21.70
2019-04-01T07:01:09.541Z,21.70
2019-04-01T07:06:10.935Z,21.70
2019-04-01T07:11:12.395Z,21.70
2019-04-01T07:16:15.944Z,21.80
2019-04-01T07:21:17.480Z,21.80
2019-04-01T07:26:18.944Z,21.80
2019-04-01T07:31:20.392Z,21.90
2019-04-01T07:36:21.862Z,21.90
2019-04-01T07:41:23.289Z,21.90
2019-04-01T07:46:24.769Z,22.00
2019-04-01T07:51:26.106Z,22.10
2019-04-01T07:56:27.643Z,22.10
2019-04-01T08:01:29.220Z,22.20
2019-04-01T08:06:30.732Z,22.20
2019-04-01T08:11:32.194Z,22.20
2019-04-01T08:16:33.785Z,22.30
2019-04-01T08:21:35.215Z,22.30
2019-04-01T08:26:36.719Z,22.30
2019-04-01T08:31:38.177Z,22.40
2019-04-01T08:36:39.507Z,22.50
2019-04-01T08:41:41.300Z,22.50
2019-04-01T08:46:42.875Z,22.60
2019-04-01T08:51:44.211Z,22.70
2019-04-01T08:56:45.769Z,22.80
2019-04-01T09:01:47.093Z,22.80
2019-04-01T09:06:48.633Z,22.90
2019-04-01T09:11:52.710Z,23.00
2019-04-01T09:16:55.656Z,23.00
2019-04-01T09:21:57.116Z,23.10
2019-04-01T09:26:58.537Z,23.20
2019-04-01T09:32:00.041Z,23.30
2019-04-01T09:37:01.531Z,23.40
2019-04-01T09:42:03.099Z,23.50
2019-04-01T09:47:04.462Z,23.50
2019-04-01T09:52:05.829Z,23.60
2019-04-01T09:57:17.277Z,23.60
2019-04-01T10:02:10.610Z,23.70
2019-04-01T10:07:11.979Z,23.80
2019-04-01T10:12:13.309Z,23.80
2019-04-01T10:17:14.702Z,23.80
2019-04-01T10:22:16.073Z,23.90
2019-04-01T10:27:17.522Z,24.00
2019-04-01T10:32:18.902Z,24.00
2019-04-01T10:37:20.466Z,24.10
2019-04-01T10:42:21.909Z,24.10
2019-04-01T10:47:23.318Z,24.20
2019-04-01T10:52:24.617Z,24.20
2019-04-01T10:57:26.065Z,24.30
2019-04-01T11:02:27.429Z,24.30
2019-04-01T11:07:28.914Z,24.30
2019-04-01T11:12:30.334Z,24.40
2019-04-01T11:17:31.789Z,24.40
2019-04-01T11:22:33.260Z,24.50
2019-04-01T11:27:34.830Z,24.50
2019-04-01T11:32:36.393Z,24.50
2019-04-01T11:37:37.944Z,24.60
2019-04-01T11:42:40.841Z,24.60
2019-04-01T11:47:42.534Z,24.60
2019-04-01T11:52:43.910Z,24.70
2019-04-01T11:57:45.265Z,24.70
2019-04-01T12:02:46.680Z,24.80
2019-04-01T12:07:48.174Z,24.80
2019-04-01T12:12:49.558Z,24.80
2019-04-01T12:17:50.911Z,24.80
2019-04-01T12:22:52.274Z,24.80
2019-04-01T12:27:53.655Z,24.90
2019-04-01T12:32:55.107Z,24.90
2019-04-01T12:37:56.581Z,24.90
2019-04-01T12:42:57.919Z,24.90
2019-04-01T12:47:59.315Z,24.90
2019-04-01T12:53:00.775Z,24.90
2019-04-01T12:58:02.115Z,24.90
2019-04-01T13:03:03.512Z,24.90
2019-04-01T13:08:04.847Z,24.90
2019-04-01T13:13:06.204Z,24.90
2019-04-01T13:18:07.607Z,25.00
2019-04-01T13:23:09.214Z,25.00
2019-04-01T13:28:10.594Z,25.00
2019-04-01T13:33:11.983Z,25.00
2019-04-01T13:38:15.078Z,25.00
2019-04-01T13:43:17.014Z,25.00
2019-04-01T13:48:18.776Z,25.00
2019-04-01T13:53:20.947Z,25.00
2019-04-01T13:58:22.378Z,25.10
2019-04-01T14:03:23.817Z,25.10
2019-04-01T14:08:25.158Z,25.00
2019-04-01T14:13:26.496Z,25.10
2019-04-01T14:18:27.847Z,25.10
2019-04-01T14:23:29.172Z,25.10
2019-04-01T14:28:30.515Z,25.00
2019-04-01T14:33:32.722Z,25.10
2019-04-01T14:38:34.231Z,25.00
2019-04-01T14:43:35.586Z,25.10
2019-04-01T14:48:36.935Z,25.00
2019-04-01T14:53:38.261Z,25.00
2019-04-01T14:58:39.603Z,25.00
2019-04-01T15:03:40.951Z,25.00
2019-04-01T15:08:43.288Z,25.00
2019-04-01T15:13:44.614Z,25.00
2019-04-01T15:18:45.987Z,25.00
2019-04-01T15:23:47.318Z,24.90
2019-04-01T15:28:48.654Z,24.90
2019-04-01T15:33:50.272Z,24.90
2019-04-01T15:38:52.104Z,24.90
2019-04-01T15:43:53.423Z,24.80
2019-04-01T15:48:54.880Z,24.80
2019-04-01T15:53:56.319Z,24.80
2019-04-01T15:58:57.672Z,24.80
2019-04-01T16:03:59.059Z,24.80
2019-04-01T16:09:00.460Z,24.80
2019-04-01T16:14:02.006Z,24.70
2019-04-01T16:19:03.472Z,24.70
2019-04-01T16:24:04.946Z,24.70
2019-04-01T16:29:06.289Z,24.70
2019-04-01T16:34:07.612Z,24.70
2019-04-01T16:39:09.177Z,24.60
2019-04-01T16:44:10.625Z,24.60
2019-04-01T16:49:12.041Z,24.60
2019-04-01T16:54:13.524Z,24.50
2019-04-01T16:59:14.862Z,24.50
2019-04-01T17:04:17.236Z,24.50
2019-04-01T17:09:18.924Z,24.50
2019-04-01T17:14:20.211Z,24.50
2019-04-01T17:19:21.567Z,24.50
2019-04-01T17:24:22.884Z,24.40
2019-04-01T17:29:25.846Z,24.40
2019-04-01T17:34:27.486Z,24.30
2019-04-01T17:39:28.855Z,24.30
2019-04-01T17:44:30.495Z,24.30
2019-04-01T17:49:31.866Z,24.30
2019-04-01T17:54:33.175Z,24.20
2019-04-01T17:59:34.669Z,24.20
2019-04-01T18:04:36.096Z,24.10
2019-04-01T18:09:37.463Z,24.00
2019-04-01T18:14:38.957Z,23.90
2019-04-01T18:19:40.388Z,24.00
2019-04-01T18:24:41.712Z,24.00
2019-04-01T18:29:43.063Z,24.00
2019-04-01T18:34:44.489Z,23.90
2019-04-01T18:39:48.408Z,23.80
2019-04-01T18:44:49.096Z,23.80
2019-04-01T18:49:50.547Z,23.80
2019-04-01T18:54:51.901Z,23.80
2019-04-01T18:59:53.231Z,23.80
2019-04-01T19:04:54.610Z,23.90
2019-04-01T19:10:05.976Z,23.90
2019-04-01T19:15:02.402Z,23.90
2019-04-01T19:20:05.976Z,23.90
2019-04-01T19:25:07.843Z,23.90
2019-04-01T19:30:10.587Z,23.90
2019-04-01T19:35:12.838Z,23.90
2019-04-01T19:40:14.684Z,23.90
2019-04-01T19:45:16.203Z,23.90
2019-04-01T19:50:19.851Z,23.90
2019-04-01T19:55:21.223Z,23.90
2019-04-01T20:00:27.991Z,23.90
2019-04-01T20:05:26.013Z,23.90
2019-04-01T20:10:28.479Z,23.90
2019-04-01T20:15:30.179Z,23.90
2019-04-01T20:20:31.621Z,23.90
2019-04-01T20:25:32.954Z,23.90
2019-04-01T20:30:35.083Z,23.90
2019-04-01T20:35:36.948Z,23.80
2019-04-01T20:40:38.255Z,23.80
2019-04-01T20:45:39.597Z,23.80
2019-04-01T20:50:40.955Z,23.80
2019-04-01T20:55:47.980Z,23.80
2019-04-01T21:00:45.649Z,23.80
2019-04-01T21:05:47.015Z,23.80
2019-04-01T21:10:48.335Z,23.80
2019-04-01T21:15:49.683Z,23.80
2019-04-01T21:20:51.038Z,23.80
2019-04-01T21:25:52.358Z,23.80
2019-04-01T21:30:53.722Z,23.80
2019-04-01T21:35:55.044Z,23.80
2019-04-01T21:40:56.889Z,23.80
2019-04-01T21:45:58.294Z,23.80
2019-04-01T21:50:59.582Z,23.80
2019-04-01T21:56:00.896Z,23.80
2019-04-01T22:01:02.691Z,23.80
2019-04-01T22:06:04.109Z,23.80
2019-04-01T22:11:06.189Z,23.80
2019-04-01T22:16:07.439Z,23.80
2019-04-01T22:21:08.771Z,23.80
2019-04-01T22:26:10.079Z,23.80
2019-04-01T22:31:11.390Z,23.80
2019-04-01T22:36:12.681Z,23.80
2019-04-01T22:41:14.019Z,23.80
2019-04-01T22:46:15.327Z,23.80
2019-04-01T22:51:16.632Z,23.80
2019-04-01T22:56:17.951Z,23.80
2019-04-01T23:01:19.249Z,23.80
2019-04-01T23:06:20.563Z,23.80
2019-04-01T23:11:21.958Z,23.80
2019-04-01T23:16:23.268Z,23.80
2019-04-01T23:21:24.691Z,23.80
2019-04-01T23:26:26.284Z,23.80
2019-04-01T23:31:27.706Z,23.80
2019-04-01T23:36:29.006Z,23.80
2019-04-01T23:41:30.636Z,23.80
2019-04-01T23:46:32.053Z,23.80
2019-04-01T23:51:33.376Z,23.80
2019-04-01T23:56:34.722Z,23.80
